Time;durP1;ratioP1;P1;durP2;ratioP2;P2;SDS_P1;SDS_P2;PMS_P1;PMS_P2;Temp;Humidity;BMP_temperature;BMP_pressure;BME280_temperature;BME280_humidity;BME280_pressure;Samples;Min_cycle;Max_cycle;Signal;HPM_P1;HPM_P2
2022/12/06 00:00:36;;;;;;;;;71.50;56.25;;;;;6.97;63.95;101547.38;2096995;27;46798;-63
2022/12/06 00:01:45;;;;;;;;;76.50;60.25;;;;;6.98;63.60;101556.16;2095879;28;46480;-63
2022/12/06 00:02:45;;;;;;;;;76.00;58.80;;;;;6.98;63.54;101550.88;2094626;28;46821;-63
2022/12/06 00:03:50;;;;;;;;;72.75;57.25;;;;;6.98;63.46;101548.25;2095191;28;46542;-61
2022/12/06 00:04:50;;;;;;;;;74.20;56.80;;;;;6.97;63.56;101550.00;2093847;28;47415;-63
2022/12/06 00:05:50;;;;;;;;;69.00;55.75;;;;;6.95;63.83;101543.84;2096566;28;46734;-64
2022/12/06 00:06:50;;;;;;;;;66.50;51.75;;;;;6.97;63.50;101546.50;2097603;28;46310;-61
2022/12/06 00:07:51;;;;;;;;;58.75;48.50;;;;;6.96;63.55;101544.72;2097061;28;47195;-63
2022/12/06 00:08:52;;;;;;;;;60.50;50.50;;;;;6.96;63.89;101540.34;2098762;28;46424;-63
2022/12/06 00:09:52;;;;;;;;;67.25;51.00;;;;;6.97;63.76;101543.84;2096499;28;45971;-66
2022/12/06 00:10:52;;;;;;;;;64.50;51.25;;;;;6.98;63.50;101535.06;2098727;28;45785;-65
2022/12/06 00:11:54;;;;;;;;;66.00;54.00;;;;;6.98;63.76;101545.63;2099411;28;46745;-64
2022/12/06 00:12:54;;;;;;;;;73.00;57.60;;;;;6.99;63.74;101547.41;2088488;28;46680;-64
2022/12/06 00:14:00;;;;;;;;;55.25;45.75;;;;;6.98;63.69;101546.50;2098523;28;46578;-68
2022/12/06 00:15:00;;;;;;;;;59.80;49.00;;;;;6.97;63.64;101547.38;2096895;28;46009;-64
2022/12/06 00:16:06;;;;;;;;;61.50;48.50;;;;;6.98;63.68;101545.63;2096311;28;46674;-66
2022/12/06 00:17:07;;;;;;;;;54.40;46.00;;;;;6.98;63.79;101548.25;2098718;28;46837;-65
2022/12/06 00:18:07;;;;;;;;;73.25;58.25;;;;;6.98;63.93;101546.50;2097935;28;46623;-65
2022/12/06 00:19:11;;;;;;;;;64.50;52.00;;;;;6.99;63.72;101543.00;2097150;27;46375;-65
2022/12/06 00:20:11;;;;;;;;;61.60;48.60;;;;;7.00;63.67;101539.50;2096397;28;46991;-63
2022/12/06 00:21:19;;;;;;;;;68.50;50.75;;;;;7.01;63.59;101545.66;2096473;28;47380;-63
2022/12/06 00:22:20;;;;;;;;;61.60;50.40;;;;;7.01;63.81;101540.38;2095994;27;46169;-64
2022/12/06 00:23:20;;;;;;;;;57.00;46.75;;;;;7.00;63.30;101539.50;2096203;28;46204;-64
2022/12/06 00:24:21;;;;;;;;;51.00;41.50;;;;;7.00;63.85;101534.22;2097168;28;46339;-64
2022/12/06 00:25:21;;;;;;;;;49.00;41.60;;;;;7.00;63.71;101536.88;2098795;28;46797;-63
2022/12/06 00:26:23;;;;;;;;;55.00;46.25;;;;;7.00;63.84;101539.50;2098538;28;46594;-65
2022/12/06 00:27:23;;;;;;;;;55.00;45.00;;;;;6.99;63.84;101532.47;2095915;28;46471;-65
2022/12/06 00:28:23;;;;;;;;;59.00;47.25;;;;;6.99;63.90;101531.56;2098816;28;46839;-64
2022/12/06 00:29:24;;;;;;;;;53.50;44.50;;;;;6.99;63.73;101526.31;2087586;28;46011;-63
2022/12/06 00:30:24;;;;;;;;;47.75;41.25;;;;;6.98;63.88;101528.03;2078764;28;46843;-64
2022/12/06 00:31:28;;;;;;;;;48.25;39.00;;;;;6.98;63.62;101520.09;2096912;28;46702;-65
2022/12/06 00:32:28;;;;;;;;;49.80;43.20;;;;;6.98;63.68;101520.09;2095856;28;46596;-63
2022/12/06 00:33:28;;;;;;;;;57.25;44.50;;;;;6.99;63.95;101523.66;2098148;28;46393;-65
2022/12/06 00:34:29;;;;;;;;;47.00;38.75;;;;;6.99;63.84;101524.53;2098180;28;46231;-63
2022/12/06 00:35:29;;;;;;;;;42.25;37.75;;;;;6.99;63.85;101521.91;2095872;28;46763;-64
2022/12/06 00:36:32;;;;;;;;;54.00;42.75;;;;;6.99;63.95;101513.09;2097652;28;46681;-65
2022/12/06 00:37:32;;;;;;;;;41.20;36.20;;;;;6.99;64.08;101515.75;2098136;28;46020;-65
2022/12/06 00:38:33;;;;;;;;;48.50;40.75;;;;;7.00;64.00;101522.78;2096169;28;46064;-63
2022/12/06 00:39:34;;;;;;;;;50.80;40.80;;;;;6.99;63.85;101511.34;2098461;28;46241;-65
2022/12/06 00:40:34;;;;;;;;;46.25;37.75;;;;;7.00;63.84;101507.84;2098722;28;46597;-63
2022/12/06 00:41:34;;;;;;;;;55.75;43.00;;;;;7.01;63.86;101514.00;2098027;28;46579;-64
2022/12/06 00:42:35;;;;;;;;;50.25;37.50;;;;;7.01;64.00;101512.22;2094927;28;46254;-64
2022/12/06 00:43:36;;;;;;;;;49.50;40.75;;;;;7.00;64.10;101506.94;2095437;28;46302;-64
2022/12/06 00:44:36;;;;;;;;;46.00;38.20;;;;;6.99;64.09;101516.63;2096780;28;46172;-64
2022/12/06 00:45:36;;;;;;;;;39.50;33.25;;;;;6.99;63.84;101513.09;2098789;28;46509;-63
2022/12/06 00:46:38;;;;;;;;;43.75;38.00;;;;;6.99;64.16;101510.47;2097662;28;47435;-65
2022/12/06 00:47:38;;;;;;;;;42.40;38.40;;;;;6.99;63.97;101510.47;2096197;28;45872;-64
2022/12/06 00:48:38;;;;;;;;;42.25;36.50;;;;;6.98;64.03;101513.94;2098474;28;46847;-64
2022/12/06 00:49:39;;;;;;;;;23.00;21.50;;;;;6.97;64.18;101518.34;2099126;28;46691;-64
2022/12/06 00:50:40;;;;;;;;;42.50;38.00;;;;;6.97;64.16;101509.56;2095979;28;46103;-64
2022/12/06 00:51:40;;;;;;;;;42.40;37.60;;;;;6.97;64.23;101517.47;2095838;28;46730;-64
2022/12/06 00:52:40;;;;;;;;;39.75;35.25;;;;;6.97;64.06;101514.81;2095685;28;46904;-64
2022/12/06 00:53:42;;;;;;;;;40.25;35.25;;;;;6.95;64.11;101513.94;2096195;28;46612;-63
2022/12/06 00:54:42;;;;;;;;;46.60;39.80;;;;;6.94;64.38;101512.19;2094683;28;45963;-63
2022/12/06 00:55:43;;;;;;;;;38.25;35.25;;;;;6.93;64.32;101506.00;2096228;28;46089;-65
2022/12/06 00:56:44;;;;;;;;;48.00;39.80;;;;;6.94;64.13;101506.91;2086176;28;46762;-63
2022/12/06 00:57:44;;;;;;;;;49.00;40.50;;;;;6.93;64.31;101506.00;2086807;28;46460;-64
2022/12/06 00:58:45;;;;;;;;;37.00;33.75;;;;;6.93;64.33;101506.00;2095822;28;46492;-64
2022/12/06 00:59:45;;;;;;;;;48.25;41.00;;;;;6.94;64.59;101513.06;2098058;28;46486;-65
2022/12/06 01:00:46;;;;;;;;;46.75;40.75;;;;;6.95;64.41;101511.31;2096823;28;46508;-63
2022/12/06 01:01:46;;;;;;;;;41.75;37.25;;;;;6.94;64.14;101512.19;2096904;27;45550;-65
2022/12/06 01:02:46;;;;;;;;;46.75;40.25;;;;;6.95;64.64;101506.03;2098857;28;46555;-63
2022/12/06 01:03:52;;;;;;;;;44.75;37.50;;;;;6.93;64.14;101503.38;2095853;28;46212;-64
2022/12/06 01:04:52;;;;;;;;;47.40;41.80;;;;;6.96;64.69;101510.44;2090632;28;46514;-64
2022/12/06 01:05:52;;;;;;;;;44.00;37.25;;;;;6.95;64.46;101508.66;2093426;28;46081;-65
2022/12/06 01:06:53;;;;;;;;;34.00;31.25;;;;;6.94;64.41;101507.78;2095807;28;46702;-64
2022/12/06 01:07:53;;;;;;;;;44.00;39.25;;;;;6.95;64.40;101506.03;2095590;28;46869;-64
2022/12/06 01:08:55;;;;;;;;;42.25;38.25;;;;;6.95;64.28;101513.94;2098555;28;46049;-62
2022/12/06 01:09:55;;;;;;;;;45.60;37.80;;;;;6.96;64.54;101510.44;2095983;27;46823;-63
2022/12/06 01:10:55;;;;;;;;;44.50;38.50;;;;;6.95;64.45;101508.66;2097998;28;46460;-62
2022/12/06 01:11:57;;;;;;;;;44.25;38.75;;;;;6.97;64.43;101512.19;2096675;28;46675;-63
2022/12/06 01:12:57;;;;;;;;;28.00;25.60;;;;;6.97;64.66;101504.28;2097574;27;46740;-65
2022/12/06 01:13:58;;;;;;;;;43.25;38.00;;;;;6.97;64.33;101509.56;2099242;27;46081;-65
2022/12/06 01:14:58;;;;;;;;;43.75;37.00;;;;;6.97;64.58;101513.06;2088621;28;46773;-64
2022/12/06 01:16:14;;;;;;;;;40.00;36.00;;;;;6.97;64.44;101509.56;2093027;28;45858;-64
2022/12/06 01:17:14;;;;;;;;;38.00;35.40;;;;;6.97;64.66;101506.91;2097485;28;46460;-64
2022/12/06 01:18:15;;;;;;;;;50.25;43.25;;;;;6.96;64.50;101511.31;2097378;28;46633;-64
2022/12/06 01:19:15;;;;;;;;;46.00;40.50;;;;;6.97;64.57;101512.19;2102568;28;46392;-60
2022/12/06 01:20:15;;;;;;;;;47.25;37.50;;;;;6.97;64.34;101505.16;2096052;28;46323;-63
2022/12/06 01:21:18;;;;;;;;;38.25;35.25;;;;;6.93;64.31;101503.38;2097491;28;46032;-64
2022/12/06 01:22:18;;;;;;;;;45.80;40.60;;;;;6.98;64.51;101508.66;2096684;28;46547;-64
2022/12/06 01:23:19;;;;;;;;;41.50;38.00;;;;;6.97;64.48;101507.78;2097575;28;46007;-64
2022/12/06 01:24:19;;;;;;;;;39.50;37.50;;;;;6.97;64.67;101507.78;2098112;28;46793;-64
2022/12/06 01:25:19;;;;;;;;;38.75;37.25;;;;;6.96;64.47;101500.75;2097264;28;46453;-63
2022/12/06 01:26:24;;;;;;;;;41.25;36.50;;;;;6.97;64.32;101507.78;2096912;28;46687;-64
2022/12/06 01:27:25;;;;;;;;;44.40;39.00;;;;;6.97;64.48;101501.63;2097542;28;46768;-62
2022/12/06 01:28:25;;;;;;;;;40.00;36.00;;;;;6.96;64.74;101508.66;2092581;28;46754;-64
2022/12/06 01:29:26;;;;;;;;;46.00;37.50;;;;;6.95;64.53;101501.63;2097790;28;46468;-64
2022/12/06 01:30:26;;;;;;;;;45.25;39.00;;;;;6.95;64.63;101503.38;2097004;28;46790;-64
2022/12/06 01:31:28;;;;;;;;;45.25;38.50;;;;;6.96;64.84;101507.78;2097736;28;46767;-65
2022/12/06 01:32:29;;;;;;;;;46.00;38.80;;;;;6.95;64.77;101503.38;2096950;28;46604;-64
2022/12/06 01:33:29;;;;;;;;;37.60;35.80;;;;;6.95;64.67;101501.63;2097832;28;46731;-64
2022/12/06 01:34:29;;;;;;;;;43.25;38.50;;;;;6.96;64.48;101505.16;2097212;28;46281;-64
2022/12/06 01:35:30;;;;;;;;;42.75;38.50;;;;;6.96;64.78;101507.78;2097972;28;46222;-63
2022/12/06 01:36:30;;;;;;;;;47.75;37.75;;;;;6.95;64.60;101508.66;2097414;28;46765;-64
2022/12/06 01:37:30;;;;;;;;;39.50;36.00;;;;;6.96;64.67;101510.44;2097595;28;45199;-64
2022/12/06 01:38:31;;;;;;;;;46.25;38.50;;;;;6.97;64.72;101509.56;2096916;28;46306;-65
2022/12/06 01:39:31;;;;;;;;;45.50;37.75;;;;;6.97;64.62;101513.06;2097475;28;46570;-64
2022/12/06 01:40:41;;;;;;;;;38.50;36.25;;;;;6.97;64.57;101510.44;2097354;28;47587;-64
2022/12/06 01:41:42;;;;;;;;;46.40;37.00;;;;;6.99;64.84;101513.09;2096190;28;46024;-64
2022/12/06 01:42:42;;;;;;;;;35.50;32.50;;;;;6.98;65.09;101506.03;2095878;28;46276;-64
2022/12/06 01:43:43;;;;;;;;;38.00;35.00;;;;;6.97;64.87;101502.50;2099358;28;46209;-64
2022/12/06 01:44:48;;;;;;;;;41.80;37.00;;;;;6.97;64.62;101507.78;2096946;28;46597;-63
2022/12/06 01:45:49;;;;;;;;;41.20;35.80;;;;;6.96;64.74;101500.75;2097530;28;46738;-65
2022/12/06 01:46:50;;;;;;;;;37.75;35.00;;;;;6.97;64.96;101505.16;2096993;28;46563;-65
2022/12/06 01:47:50;;;;;;;;;38.75;36.50;;;;;6.97;64.93;101501.63;2097342;28;46668;-64
2022/12/06 01:48:57;;;;;;;;;46.25;38.25;;;;;6.97;65.00;101501.63;2097377;28;46748;-64
2022/12/06 01:50:15;;;;;;;;;38.00;34.20;;;;;6.95;65.00;101501.63;2097367;28;46728;-64
2022/12/06 01:51:16;;;;;;;;;36.80;33.60;;;;;6.95;64.75;101499.00;2094087;28;45249;-63
2022/12/06 01:52:17;;;;;;;;;37.25;34.50;;;;;6.95;65.26;101503.38;2097926;28;46772;-63
2022/12/06 01:53:18;;;;;;;;;36.80;33.40;;;;;6.95;65.13;101501.63;2097094;28;46285;-64
2022/12/06 01:54:20;;;;;;;;;34.50;30.00;;;;;6.94;64.86;101506.91;2096384;28;46028;-64
2022/12/06 01:55:26;;;;;;;;;42.80;36.20;;;;;6.92;64.87;101503.38;2096635;28;46581;-64
2022/12/06 01:56:26;;;;;;;;;36.20;35.00;;;;;6.93;64.91;101513.94;2097243;28;46929;-65
2022/12/06 01:57:27;;;;;;;;;45.50;40.00;;;;;6.93;64.93;101502.50;2097023;28;46768;-64
2022/12/06 01:58:39;;;;;;;;;40.60;35.80;;;;;6.93;65.34;101515.69;2097278;28;46870;-64
2022/12/06 01:59:39;;;;;;;;;37.40;33.20;;;;;6.91;64.97;101510.41;2092215;28;46872;-64
2022/12/06 02:00:40;;;;;;;;;33.50;32.50;;;;;6.92;65.03;101512.16;2097325;28;46434;-64
2022/12/06 02:01:40;;;;;;;;;37.50;33.75;;;;;6.92;65.37;101514.81;2096888;28;46465;-64
2022/12/06 02:02:41;;;;;;;;;38.25;35.25;;;;;6.92;65.19;101514.81;2096826;28;46905;-64
2022/12/06 02:03:43;;;;;;;;;44.00;35.00;;;;;6.92;65.11;101514.81;2096890;28;46567;-64
2022/12/06 02:04:43;;;;;;;;;38.60;37.00;;;;;6.93;65.40;101513.94;2095821;28;46693;-65
2022/12/06 02:05:44;;;;;;;;;40.50;36.00;;;;;6.94;65.40;101513.06;2084735;28;46302;-63
2022/12/06 02:06:45;;;;;;;;;41.75;36.00;;;;;6.95;65.41;101513.94;2085801;28;45754;-62
2022/12/06 02:07:46;;;;;;;;;34.00;32.60;;;;;6.96;65.19;101511.31;2097268;28;46082;-63
2022/12/06 02:08:47;;;;;;;;;39.50;35.00;;;;;6.96;65.16;101515.69;2097150;28;46591;-64
2022/12/06 02:09:49;;;;;;;;;34.00;33.25;;;;;6.98;65.22;101514.84;2098018;28;46683;-64
2022/12/06 02:10:50;;;;;;;;;42.00;36.20;;;;;6.98;65.38;101516.59;2102107;28;46646;-63
2022/12/06 02:11:51;;;;;;;;;39.00;33.25;;;;;6.97;65.30;101518.34;2099121;28;45382;-62
2022/12/06 02:12:56;;;;;;;;;40.00;35.50;;;;;6.98;65.34;101516.59;2096787;28;46388;-64
2022/12/06 02:13:57;;;;;;;;;39.80;34.00;;;;;6.96;65.29;101511.31;2096656;28;46872;-63
2022/12/06 02:14:58;;;;;;;;;38.00;34.75;;;;;6.99;65.50;101514.00;2100469;28;46515;-63
2022/12/06 02:16:25;;;;;;;;;39.40;34.00;;;;;6.99;65.62;101511.34;2096591;28;46770;-63
2022/12/06 02:17:45;;;;;;;;;43.80;37.00;;;;;7.01;65.40;101508.72;2074345;28;46562;-64
2022/12/06 02:18:51;;;;;;;;;40.20;36.40;;;;;7.03;65.29;101513.13;2079403;28;46765;-64
2022/12/06 02:19:55;;;;;;;;;33.40;30.40;;;;;7.02;65.32;101511.34;2080835;28;46911;-63
2022/12/06 02:21:06;;;;;;;;;45.80;38.80;;;;;7.04;65.23;101516.63;2082441;28;46131;-62
2022/12/06 02:22:11;;;;;;;;;35.00;32.60;;;;;7.02;65.37;101507.84;2079181;28;45855;-64
2022/12/06 02:23:50;;;;;;;;;36.20;33.60;;;;;7.04;65.38;101519.28;2079088;28;46060;-63
2022/12/06 02:25:03;;;;;;;;;37.40;34.80;;;;;7.03;65.58;101522.78;2076779;28;45843;-64
2022/12/06 02:26:20;;;;;;;;;39.00;34.40;;;;;7.03;65.42;101518.41;2078955;28;46573;-64
2022/12/06 02:27:35;;;;;;;;;35.80;31.80;;;;;7.04;65.68;101519.28;2079023;28;46668;-64
2022/12/06 02:29:18;;;;;;;;;37.20;34.20;;;;;7.05;65.34;101521.91;2078732;28;46450;-63
2022/12/06 02:30:56;;;;;;;;;40.20;35.60;;;;;7.05;65.44;101523.69;2074524;28;48254;-62
2022/12/06 02:32:15;;;;;;;;;35.60;33.60;;;;;7.05;65.46;101526.31;2079184;28;46713;-65
2022/12/06 02:33:34;;;;;;;;;37.00;35.20;;;;;7.03;65.47;101522.78;2079084;28;46476;-64
2022/12/06 02:34:59;;;;;;;;;44.00;35.40;;;;;7.03;65.45;101518.41;2071093;28;46632;-64
2022/12/06 02:36:21;;;;;;;;;36.20;33.60;;;;;7.01;65.62;101514.88;2079107;28;47026;-64
2022/12/06 02:38:23;;;;;;;;;32.60;28.40;;;;;7.01;65.55;101520.16;2078781;28;46575;-63
2022/12/06 02:39:32;;;;;;;;;42.00;36.80;;;;;7.00;65.48;101521.03;2038477;28;46282;-64
2022/12/06 02:40:41;;;;;;;;;40.00;36.60;;;;;7.00;65.70;101517.50;2040270;28;46395;-64
2022/12/06 02:41:50;;;;;;;;;45.40;38.40;;;;;7.00;65.60;101513.13;2038361;28;46397;-64
2022/12/06 02:42:57;;;;;;;;;35.20;29.00;;;;;7.00;65.63;101517.50;2039043;28;46395;-64
2022/12/06 02:44:07;;;;;;;;;37.20;36.00;;;;;7.00;65.69;101513.13;2039324;28;46785;-63
2022/12/06 02:45:17;;;;;;;;;35.20;33.00;;;;;7.01;65.59;101512.22;2038705;28;46841;-64
2022/12/06 02:46:20;;;;;;;;;39.20;36.20;;;;;7.03;65.65;101517.53;2038700;28;46582;-64
2022/12/06 02:47:26;;;;;;;;;38.40;34.40;;;;;7.01;65.41;101508.72;2038316;28;46594;-63
2022/12/06 02:48:26;;;;;;;;;35.60;31.20;;;;;7.04;65.60;101509.59;2038749;28;46651;-64
2022/12/06 02:49:32;;;;;;;;;35.50;33.25;;;;;7.03;65.79;101509.59;2038670;28;46443;-63
2022/12/06 02:50:38;;;;;;;;;39.60;35.00;;;;;7.03;65.52;101505.19;2038359;28;46337;-64
2022/12/06 02:51:40;;;;;;;;;36.40;32.80;;;;;7.03;65.73;101518.41;2039714;28;46615;-64
2022/12/06 02:52:44;;;;;;;;;35.60;33.80;;;;;7.04;65.95;101516.63;2038004;28;45771;-63
2022/12/06 02:53:49;;;;;;;;;36.00;32.00;;;;;7.03;65.56;101502.56;2037681;28;46726;-63
2022/12/06 02:54:52;;;;;;;;;37.00;35.00;;;;;7.01;65.44;101501.69;2038191;28;46926;-64
2022/12/06 02:55:53;;;;;;;;;38.80;35.60;;;;;7.02;65.83;101508.72;2037832;28;46506;-63
2022/12/06 02:56:54;;;;;;;;;44.00;35.20;;;;;7.01;66.03;101499.03;2038245;28;45071;-63
2022/12/06 02:57:56;;;;;;;;;34.25;33.00;;;;;7.03;65.85;101499.03;2029646;29;46449;-64
2022/12/06 02:58:56;;;;;;;;;31.80;30.60;;;;;7.03;65.46;101504.31;2027865;28;46349;-63
2022/12/06 02:59:57;;;;;;;;;34.25;32.25;;;;;7.04;65.85;101500.81;2037759;28;45639;-65
2022/12/06 03:01:01;;;;;;;;;33.25;28.75;;;;;7.03;65.76;101502.56;2037207;28;46870;-62
2022/12/06 03:02:05;;;;;;;;;40.60;36.80;;;;;7.05;65.75;101510.47;2021783;29;46988;-63
2022/12/06 03:03:35;;;;;;;;;37.20;32.60;;;;;7.04;65.54;101498.16;2023952;28;45346;-64
2022/12/06 03:05:13;;;;;;;;;38.20;37.00;;;;;7.03;65.54;101499.94;2038121;28;46884;-63
2022/12/06 03:06:39;;;;;;;;;38.80;33.20;;;;;7.03;65.72;101504.31;2038475;28;46444;-62
2022/12/06 03:07:45;;;;;;;;;32.80;31.40;;;;;7.02;65.87;101508.72;2038455;28;46202;-63
2022/12/06 03:09:03;;;;;;;;;37.40;35.60;;;;;7.02;65.78;101507.84;2014602;29;46581;-63
2022/12/06 03:10:29;;;;;;;;;36.40;33.60;;;;;7.03;65.86;101505.19;2014630;29;46590;-64
2022/12/06 03:11:57;;;;;;;;;37.80;35.20;;;;;7.04;66.03;101508.72;2014865;29;46955;-63
2022/12/06 03:13:17;;;;;;;;;39.40;34.00;;;;;7.05;65.97;101510.47;2008893;29;45564;-64
2022/12/06 03:14:22;;;;;;;;;41.60;37.40;;;;;7.05;65.71;101506.09;2049261;28;46823;-64
2022/12/06 03:15:35;;;;;;;;;35.20;33.20;;;;;7.05;65.96;101503.44;2046657;28;46993;-63
2022/12/06 03:16:47;;;;;;;;;35.40;31.80;;;;;7.07;65.87;101508.72;2047506;28;46306;-64
2022/12/06 03:18:04;;;;;;;;;47.80;40.20;;;;;7.07;65.61;101508.72;2076391;28;46386;-64
2022/12/06 03:19:12;;;;;;;;;34.60;32.80;;;;;7.07;65.95;101508.72;2079454;28;46492;-64
2022/12/06 03:20:22;;;;;;;;;41.40;34.80;;;;;7.05;65.94;101513.13;2078857;28;46300;-64
2022/12/06 03:21:38;;;;;;;;;48.60;38.00;;;;;7.06;65.77;101509.59;2079524;28;46679;-64
2022/12/06 03:22:45;;;;;;;;;43.80;35.80;;;;;7.07;66.05;101506.09;2079614;28;46382;-62
2022/12/06 03:23:49;;;;;;;;;42.40;36.40;;;;;7.05;65.91;101516.66;2079639;28;46508;-64
2022/12/06 03:24:51;;;;;;;;;42.00;36.80;;;;;7.06;66.11;101509.59;2078610;28;46731;-63
2022/12/06 03:25:54;;;;;;;;;41.00;36.20;;;;;7.05;66.17;101511.38;2079858;28;46899;-64
2022/12/06 03:26:58;;;;;;;;;33.80;32.20;;;;;7.06;66.08;101512.25;2079784;28;46558;-63
2022/12/06 03:28:01;;;;;;;;;36.00;29.00;;;;;7.06;66.25;101506.97;2079285;28;46929;-63
2022/12/06 03:29:05;;;;;;;;;38.60;30.20;;;;;7.07;66.23;101509.63;2079567;28;46493;-64
2022/12/06 03:30:08;;;;;;;;;38.00;34.80;;;;;7.07;66.06;101512.25;2079600;28;47204;-63
2022/12/06 03:31:11;;;;;;;;;41.00;37.00;;;;;7.08;65.99;101510.50;2076050;28;46803;-63
2022/12/06 03:32:16;;;;;;;;;37.40;35.20;;;;;7.10;66.45;101514.03;2079819;28;46737;-64
2022/12/06 03:33:20;;;;;;;;;35.60;33.20;;;;;7.11;66.20;101510.50;2078819;28;46646;-65
2022/12/06 03:34:27;;;;;;;;;39.00;35.80;;;;;7.13;65.50;101513.19;2079289;28;46857;-64
2022/12/06 03:35:32;;;;;;;;;40.00;36.80;;;;;7.15;65.99;101517.59;2079720;28;46693;-63
2022/12/06 03:36:33;;;;;;;;;43.60;35.80;;;;;7.14;66.29;101518.47;2079897;28;46314;-64
2022/12/06 03:37:37;;;;;;;;;29.20;26.00;;;;;7.13;66.02;101513.19;2067319;28;46835;-65
2022/12/06 03:38:49;;;;;;;;;38.80;35.80;;;;;7.14;66.08;101515.81;2070705;28;46681;-64
2022/12/06 03:40:22;;;;;;;;;41.80;37.00;;;;;7.14;66.18;101509.66;2078876;28;46878;-63
2022/12/06 03:41:28;;;;;;;;;30.20;27.80;;;;;7.12;66.18;101514.94;2091165;28;46719;-63
2022/12/06 03:42:30;;;;;;;;;39.80;34.20;;;;;7.11;65.98;101513.13;2078364;28;46350;-64
2022/12/06 03:43:31;;;;;;;;;47.20;38.20;;;;;7.10;66.07;101516.66;2074044;28;46665;-64
2022/12/06 03:44:33;;;;;;;;;49.80;39.40;;;;;7.10;66.27;101516.66;2095588;28;46317;-63
2022/12/06 03:46:02;;;;;;;;;40.80;35.40;;;;;7.09;66.07;101506.97;2099617;28;45427;-62
2022/12/06 03:47:14;;;;;;;;;45.40;37.80;;;;;7.08;66.16;101511.38;2096152;28;46726;-63
2022/12/06 03:48:29;;;;;;;;;43.40;38.00;;;;;7.09;66.36;101517.53;2096587;28;46113;-63
2022/12/06 03:49:40;;;;;;;;;44.80;35.40;;;;;7.08;66.38;101508.72;2093816;28;46891;-64
2022/12/06 03:50:49;;;;;;;;;30.40;28.20;;;;;7.08;66.35;101508.72;2098397;27;46609;-63
2022/12/06 03:51:49;;;;;;;;;42.40;38.80;;;;;7.09;66.19;101509.63;2099707;28;46891;-64
2022/12/06 03:52:53;;;;;;;;;36.25;32.75;;;;;7.10;66.41;101508.75;2097139;28;46576;-64
2022/12/06 03:53:57;;;;;;;;;49.60;37.20;;;;;7.11;66.19;101506.97;2095116;28;46473;-63
2022/12/06 03:54:57;;;;;;;;;42.20;38.00;;;;;7.10;66.26;101503.47;2100030;28;46675;-64
2022/12/06 03:55:58;;;;;;;;;45.50;40.25;;;;;7.11;66.43;101507.88;2096803;28;45726;-64
2022/12/06 03:56:58;;;;;;;;;52.00;41.40;;;;;7.11;66.50;101505.22;2099839;27;47092;-64
2022/12/06 03:57:59;;;;;;;;;47.25;41.25;;;;;7.12;66.40;101495.56;2100118;28;46646;-64
2022/12/06 03:58:59;;;;;;;;;45.75;38.25;;;;;7.12;66.29;101506.13;2096365;28;46333;-64
2022/12/06 04:00:00;;;;;;;;;47.75;40.25;;;;;7.12;66.28;101499.09;2096613;28;46906;-62
2022/12/06 04:01:03;;;;;;;;;42.25;36.50;;;;;7.11;66.51;101497.31;2097633;28;46634;-63
2022/12/06 04:02:04;;;;;;;;;43.00;34.60;;;;;7.12;66.36;101501.75;2096229;28;46455;-64
2022/12/06 04:03:04;;;;;;;;;53.50;41.75;;;;;7.11;66.51;101505.22;2098036;28;46768;-64
2022/12/06 04:04:04;;;;;;;;;45.50;38.25;;;;;7.10;66.29;101495.53;2096582;28;46223;-64
2022/12/06 04:05:05;;;;;;;;;43.25;39.50;;;;;7.10;66.46;101503.47;2089069;28;46548;-63
2022/12/06 04:06:07;;;;;;;;;48.75;41.25;;;;;7.09;66.45;101505.22;2090384;28;46229;-65
2022/12/06 04:07:09;;;;;;;;;51.80;41.40;;;;;7.10;66.48;101511.38;2096068;28;46815;-63
2022/12/06 04:08:09;;;;;;;;;44.20;40.00;;;;;7.10;66.51;101511.38;2100332;28;46882;-65
2022/12/06 04:10:28;;;;;;;;;51.00;41.00;;;;;7.14;66.59;101512.31;2088013;28;46592;-63
2022/12/06 04:11:29;;;;;;;;;42.75;38.00;;;;;7.15;66.59;101519.34;2100747;27;46800;-62
2022/12/06 04:13:51;;;;;;;;;52.80;39.60;;;;;7.13;66.62;101510.53;2097583;28;46986;-63
2022/12/06 04:14:51;;;;;;;;;49.25;39.25;;;;;7.14;66.68;101505.25;2089423;28;46662;-63
2022/12/06 04:15:56;;;;;;;;;37.50;35.50;;;;;7.13;66.40;101499.97;2089132;28;46142;-63
2022/12/06 04:18:17;;;;;;;;;54.60;42.00;;;;;7.15;66.47;101509.66;2097657;28;46534;-64
2022/12/06 04:19:17;;;;;;;;;42.50;34.00;;;;;7.15;66.42;101503.50;2100227;28;46841;-64
2022/12/06 04:20:18;;;;;;;;;40.50;37.00;;;;;7.14;66.38;101505.25;2096858;28;46315;-61
2022/12/06 04:23:50;;;;;;;;;47.80;39.20;;;;;7.14;66.61;101507.03;2095719;28;46692;-65
2022/12/06 04:24:51;;;;;;;;;41.00;35.40;;;;;7.12;66.48;101509.66;2096252;28;46567;-64
2022/12/06 04:25:51;;;;;;;;;46.25;39.75;;;;;7.14;66.47;101507.91;2098428;28;46741;-63
2022/12/06 04:28:40;;;;;;;;;40.50;36.25;;;;;7.12;66.68;101514.94;2099892;28;46477;-65
2022/12/06 04:38:43;;;;;;;;;44.80;35.60;;;;;7.11;66.58;101510.50;2090840;28;47238;-64
2022/12/06 04:39:44;;;;;;;;;43.50;37.50;;;;;7.12;66.78;101512.28;2094607;28;47349;-63
2022/12/06 04:40:46;;;;;;;;;43.25;38.75;;;;;7.13;66.79;101508.78;2094588;28;46534;-63
2022/12/06 04:44:27;;;;;;;;;44.20;39.20;;;;;7.12;66.63;101500.84;2095110;28;46395;-65
2022/12/06 04:45:27;;;;;;;;;42.50;38.25;;;;;7.10;66.78;101500.81;2096153;28;46092;-64
2022/12/06 04:46:28;;;;;;;;;42.50;37.75;;;;;7.10;67.02;101500.81;2087252;28;46459;-64
2022/12/06 04:47:28;;;;;;;;;47.50;40.75;;;;;7.10;66.70;101508.75;2086900;28;46429;-64
2022/12/06 04:48:28;;;;;;;;;42.75;38.75;;;;;7.11;66.82;101504.34;2095952;28;46281;-64
2022/12/06 04:49:28;;;;;;;;;41.25;37.25;;;;;7.11;66.89;101509.63;2096545;28;46519;-64
2022/12/06 04:50:29;;;;;;;;;34.75;30.25;;;;;7.11;67.01;101499.94;2096260;28;46745;-66
2022/12/06 04:51:29;;;;;;;;;49.50;38.00;;;;;7.12;67.11;101504.38;2096368;28;46684;-65
2022/12/06 04:52:29;;;;;;;;;47.75;39.25;;;;;7.13;66.81;101503.50;2096362;28;46373;-65
2022/12/06 04:53:30;;;;;;;;;42.25;37.00;;;;;7.14;66.87;101493.81;2097604;28;46155;-65
2022/12/06 04:54:30;;;;;;;;;43.00;37.50;;;;;7.16;66.95;101492.06;2097112;28;46207;-66
2022/12/06 04:55:30;;;;;;;;;51.50;37.75;;;;;7.17;67.00;101500.00;2096934;28;46319;-63
2022/12/06 04:56:31;;;;;;;;;43.50;36.75;;;;;7.17;66.88;101494.72;2097373;28;45790;-63
2022/12/06 04:57:31;;;;;;;;;45.75;36.75;;;;;7.18;66.73;101492.94;2097567;28;46839;-65
2022/12/06 04:58:32;;;;;;;;;41.50;34.50;;;;;7.17;66.73;101489.44;2096327;28;46884;-65
2022/12/06 04:59:32;;;;;;;;;40.75;36.00;;;;;7.18;67.09;101495.59;2097370;28;46874;-64
2022/12/06 05:00:32;;;;;;;;;49.25;39.75;;;;;7.17;66.83;101494.72;2101577;28;46496;-64
2022/12/06 05:01:32;;;;;;;;;48.25;38.25;;;;;7.18;66.78;101500.88;2097315;28;46272;-63
2022/12/06 05:02:33;;;;;;;;;41.50;37.50;;;;;7.18;67.07;101495.59;2097378;28;46851;-64
2022/12/06 05:03:33;;;;;;;;;46.00;38.00;;;;;7.18;66.99;101495.59;2098037;28;46298;-65
2022/12/06 05:04:33;;;;;;;;;41.25;37.25;;;;;7.17;67.15;101497.34;2096956;28;46485;-64
2022/12/06 05:05:34;;;;;;;;;45.00;38.25;;;;;7.16;66.90;101495.59;2097971;28;45834;-63
2022/12/06 05:06:34;;;;;;;;;53.00;40.50;;;;;7.17;66.82;101494.72;2096956;28;46335;-63
2022/12/06 05:07:34;;;;;;;;;51.50;42.00;;;;;7.16;66.96;101492.06;2097506;28;47043;-63
2022/12/06 05:08:35;;;;;;;;;44.00;38.75;;;;;7.15;66.90;101492.94;2097389;28;46587;-65
2022/12/06 05:09:35;;;;;;;;;49.00;40.00;;;;;7.14;66.61;101489.44;2097231;28;46131;-65
2022/12/06 05:10:36;;;;;;;;;48.50;40.00;;;;;7.15;67.17;101488.56;2096966;28;46840;-65
2022/12/06 05:11:37;;;;;;;;;53.00;42.75;;;;;7.15;67.08;101488.56;2096660;28;46445;-63
2022/12/06 05:12:37;;;;;;;;;44.20;38.00;;;;;7.15;67.00;101485.91;2096588;28;46590;-64
2022/12/06 05:13:38;;;;;;;;;51.00;41.75;;;;;7.14;67.31;101483.28;2087680;28;46752;-64
2022/12/06 05:14:38;;;;;;;;;49.00;40.75;;;;;7.15;67.25;101479.75;2087801;28;46233;-64
2022/12/06 05:15:38;;;;;;;;;43.75;37.75;;;;;7.15;67.10;101485.03;2096360;28;44978;-64